createdAt,value
2018-09-03T00:00:44.196Z,54.20
2018-09-03T00:03:14.337Z,54.10
2018-09-03T00:05:45.361Z,54.30
2018-09-03T00:08:15.874Z,54.50
2018-09-03T00:10:46.165Z,54.60
2018-09-03T00:13:16.383Z,54.60
2018-09-03T00:15:47.127Z,54.60
2018-09-03T00:18:17.792Z,54.50
2018-09-03T00:20:47.979Z,54.60
2018-09-03T00:23:18.535Z,54.90
2018-09-03T00:25:48.867Z,54.80
2018-09-03T00:28:19.487Z,54.60
2018-09-03T00:30:50.046Z,54.50
2018-09-03T00:33:25.718Z,54.60
2018-09-03T00:36:00.928Z,54.80
2018-09-03T00:38:36.274Z,54.80
2018-09-03T00:41:12.071Z,55.10
2018-09-03T00:43:47.480Z,55.20
2018-09-03T00:46:22.762Z,55.10
2018-09-03T00:48:51.800Z,55.20
2018-09-03T00:51:22.503Z,55.40
2018-09-03T00:53:53.323Z,55.50
2018-09-03T00:56:23.767Z,55.70
2018-09-03T00:58:53.159Z,55.80
2018-09-03T01:01:23.198Z,55.50
2018-09-03T01:03:53.695Z,55.40
2018-09-03T01:06:23.894Z,55.20
2018-09-03T01:08:54.776Z,54.90
2018-09-03T01:11:25.954Z,55.10
2018-09-03T01:13:56.887Z,54.90
2018-09-03T01:16:28.182Z,54.90
2018-09-03T01:18:58.784Z,54.90
2018-09-03T01:21:29.676Z,54.80
2018-09-03T01:24:00.945Z,54.90
2018-09-03T01:26:31.354Z,55.20
2018-09-03T01:29:01.644Z,55.20
2018-09-03T01:31:32.098Z,55.10
2018-09-03T01:34:02.508Z,55.20
2018-09-03T01:36:31.564Z,55.40
2018-09-03T01:39:02.533Z,55.20
2018-09-03T01:41:33.047Z,55.40
2018-09-03T01:44:03.549Z,55.50
2018-09-03T01:46:34.122Z,55.70
2018-09-03T01:49:04.505Z,56.00
2018-09-03T01:51:34.502Z,56.30
2018-09-03T01:54:05.358Z,56.10
2018-09-03T01:56:35.803Z,56.10
2018-09-03T01:59:06.521Z,56.10
2018-09-03T02:01:35.867Z,55.80
2018-09-03T02:04:06.008Z,55.50
2018-09-03T02:06:36.419Z,55.50
2018-09-03T02:09:11.572Z,55.20
2018-09-03T02:11:42.923Z,54.90
2018-09-03T02:14:12.991Z,54.60
2018-09-03T02:16:42.862Z,54.90
2018-09-03T02:19:12.991Z,55.40
2018-09-03T02:21:43.687Z,55.20
2018-09-03T02:24:15.112Z,55.10
2018-09-03T02:26:45.195Z,54.80
2018-09-03T02:29:14.389Z,54.90
2018-09-03T02:31:43.251Z,55.20
2018-09-03T02:34:12.110Z,55.40
2018-09-03T02:36:41.523Z,55.20
2018-09-03T02:39:11.383Z,55.50
2018-09-03T02:41:42.126Z,56.70
2018-09-03T02:44:12.904Z,56.90
2018-09-03T02:46:43.329Z,56.90
2018-09-03T02:49:14.235Z,56.90
2018-09-03T02:51:44.976Z,56.90
2018-09-03T02:54:15.404Z,57.00
2018-09-03T02:56:45.891Z,57.00
2018-09-03T02:59:16.304Z,57.00
2018-09-03T03:01:46.064Z,56.90
2018-09-03T03:04:15.985Z,56.90
2018-09-03T03:06:46.806Z,56.70
2018-09-03T03:09:17.396Z,57.00
2018-09-03T03:11:48.415Z,56.90
2018-09-03T03:14:17.464Z,56.70
2018-09-03T03:16:54.357Z,56.40
2018-09-03T03:19:25.543Z,56.70
2018-09-03T03:21:56.283Z,56.60
2018-09-03T03:24:26.534Z,56.70
2018-09-03T03:26:56.985Z,56.60
2018-09-03T03:29:27.277Z,56.60
2018-09-03T03:31:57.451Z,56.40
2018-09-03T03:34:27.868Z,56.10
2018-09-03T03:36:58.426Z,56.00
2018-09-03T03:39:28.718Z,56.00
2018-09-03T03:41:59.275Z,55.70
2018-09-03T03:44:29.509Z,55.70
2018-09-03T03:46:59.816Z,55.80
2018-09-03T03:49:30.358Z,56.10
2018-09-03T03:52:01.593Z,56.40
2018-09-03T03:54:32.344Z,56.70
2018-09-03T03:57:02.618Z,57.20
2018-09-03T03:59:33.181Z,57.30
2018-09-03T04:02:03.406Z,57.00
2018-09-03T04:04:33.457Z,57.00
2018-09-03T04:07:03.616Z,57.40
2018-09-03T04:09:35.021Z,57.40
2018-09-03T04:12:05.655Z,57.20
2018-09-03T04:14:36.600Z,57.20
2018-09-03T04:17:07.649Z,57.20
2018-09-03T04:19:38.438Z,57.30
2018-09-03T04:22:08.681Z,57.20
2018-09-03T04:24:39.319Z,57.20
2018-09-03T04:27:09.334Z,57.40
2018-09-03T04:29:40.331Z,57.30
2018-09-03T04:32:10.759Z,57.40
2018-09-03T04:34:41.026Z,57.00
2018-09-03T04:37:11.850Z,56.90
2018-09-03T04:39:41.664Z,57.00
2018-09-03T04:42:12.735Z,57.30
2018-09-03T04:44:43.241Z,57.40
2018-09-03T04:47:13.378Z,57.30
2018-09-03T04:49:43.619Z,57.20
2018-09-03T04:52:13.782Z,57.20
2018-09-03T04:54:43.710Z,57.30
2018-09-03T04:57:14.831Z,57.40
2018-09-03T04:59:44.873Z,57.60
2018-09-03T05:02:13.859Z,57.40
2018-09-03T05:04:44.192Z,57.60
2018-09-03T05:07:14.802Z,57.70
2018-09-03T05:09:46.492Z,58.00
2018-09-03T05:12:17.261Z,58.00
2018-09-03T05:14:47.583Z,57.70
2018-09-03T05:17:18.283Z,57.60
2018-09-03T05:19:48.935Z,57.40
2018-09-03T05:22:19.380Z,57.20
2018-09-03T05:24:49.883Z,56.60
2018-09-03T05:27:20.248Z,56.40
2018-09-03T05:29:50.424Z,56.40
2018-09-03T05:32:20.441Z,56.30
2018-09-03T05:34:51.088Z,56.10
2018-09-03T05:37:20.970Z,55.70
2018-09-03T05:39:51.237Z,55.50
2018-09-03T05:42:20.826Z,55.40
2018-09-03T05:44:51.218Z,55.80
2018-09-03T05:47:21.803Z,55.80
2018-09-03T05:49:52.033Z,56.00
2018-09-03T05:52:22.377Z,55.80
2018-09-03T05:54:52.861Z,55.20
2018-09-03T05:57:24.124Z,54.90
2018-09-03T05:59:54.268Z,54.20
2018-09-03T06:02:24.943Z,54.10
2018-09-03T06:04:55.842Z,54.10
2018-09-03T06:07:26.680Z,53.90
2018-09-03T06:09:56.971Z,53.90
2018-09-03T06:12:27.125Z,53.80
2018-09-03T06:14:57.134Z,53.60
2018-09-03T06:17:27.627Z,53.50
2018-09-03T06:19:58.008Z,53.50
2018-09-03T06:22:28.283Z,53.30
2018-09-03T06:24:59.129Z,53.20
2018-09-03T06:27:29.384Z,53.00
2018-09-03T06:29:59.344Z,52.90
2018-09-03T06:32:29.568Z,52.30
2018-09-03T06:35:00.024Z,52.00
2018-09-03T06:37:30.194Z,51.70
2018-09-03T06:40:01.364Z,50.90
2018-09-03T06:42:31.442Z,50.10
2018-09-03T06:45:02.414Z,49.50
2018-09-03T06:47:36.890Z,49.20
2018-09-03T06:50:07.567Z,48.60
2018-09-03T06:52:38.262Z,47.50
2018-09-03T06:55:09.292Z,46.40
2018-09-03T06:57:39.741Z,45.30
2018-09-03T07:00:10.348Z,44.00
2018-09-03T07:02:42.314Z,42.70
2018-09-03T07:05:13.002Z,41.60
2018-09-03T07:07:42.214Z,40.70
2018-09-03T07:10:11.434Z,39.60
2018-09-03T07:12:41.223Z,38.50
2018-09-03T07:15:10.151Z,37.80
2018-09-03T07:17:39.638Z,36.60
2018-09-03T07:20:08.514Z,36.20
2018-09-03T07:22:37.370Z,34.70
2018-09-03T07:25:06.264Z,33.40
2018-09-03T07:27:35.128Z,32.50
2018-09-03T07:30:04.062Z,31.90
2018-09-03T07:32:33.239Z,31.40
2018-09-03T07:35:02.431Z,31.30
2018-09-03T07:37:31.579Z,30.40
2018-09-03T07:40:00.755Z,29.80
2018-09-03T07:42:30.699Z,29.60
2018-09-03T07:44:59.894Z,30.10
2018-09-03T07:47:29.107Z,30.40
2018-09-03T07:49:58.033Z,31.40
2018-09-03T07:52:27.220Z,32.50
2018-09-03T07:54:56.126Z,34.00
2018-09-03T07:57:25.394Z,34.80
2018-09-03T07:59:54.874Z,35.60
2018-09-03T08:02:23.749Z,36.50
2018-09-03T08:04:52.627Z,37.10
2018-09-03T08:07:21.525Z,37.50
2018-09-03T08:09:50.476Z,37.80
2018-09-03T08:12:19.598Z,37.80
2018-09-03T08:14:48.768Z,38.20
2018-09-03T08:17:17.667Z,38.50
2018-09-03T08:19:46.551Z,38.70
2018-09-03T08:22:15.770Z,39.00
2018-09-03T08:24:44.672Z,38.80
2018-09-03T08:27:13.547Z,38.50
2018-09-03T08:29:42.444Z,38.50
2018-09-03T08:32:11.675Z,38.50
2018-09-03T08:34:40.550Z,38.10
2018-09-03T08:37:09.423Z,37.80
2018-09-03T08:39:38.560Z,37.50
2018-09-03T08:42:07.463Z,36.90
2018-09-03T08:44:36.334Z,36.60
2018-09-03T08:47:05.507Z,36.00
2018-09-03T08:49:34.381Z,35.60
2018-09-03T08:52:03.552Z,35.10
2018-09-03T08:54:32.964Z,35.00
2018-09-03T08:57:02.127Z,35.30
2018-09-03T08:59:31.322Z,35.00
2018-09-03T09:02:00.733Z,35.00
2018-09-03T09:04:29.823Z,34.00
2018-09-03T09:06:58.693Z,33.40
2018-09-03T09:09:27.772Z,32.90
2018-09-03T09:11:56.649Z,32.00
2018-09-03T09:14:25.579Z,31.40
2018-09-03T09:16:54.532Z,31.10
2018-09-03T09:19:23.396Z,30.70
2018-09-03T09:21:52.599Z,30.60
2018-09-03T09:24:21.859Z,30.60
2018-09-03T09:26:50.757Z,30.30
2018-09-03T09:29:19.648Z,30.10
2018-09-03T09:31:48.515Z,29.80
2018-09-03T09:34:17.491Z,29.60
2018-09-03T09:36:46.383Z,29.60
2018-09-03T09:39:15.478Z,29.30
2018-09-03T09:41:44.395Z,29.10
2018-09-03T09:44:13.314Z,28.90
2018-09-03T09:46:42.250Z,28.70
2018-09-03T09:49:11.253Z,28.40
2018-09-03T09:51:40.266Z,27.90
2018-09-03T09:54:09.131Z,28.00
2018-09-03T09:56:38.063Z,27.70
2018-09-03T09:59:07.046Z,27.50
2018-09-03T10:01:38.398Z,27.40
2018-09-03T10:04:07.889Z,27.00
2018-09-03T10:06:36.794Z,26.90
2018-09-03T10:09:07.170Z,26.90
2018-09-03T10:11:36.091Z,26.90
2018-09-03T10:14:05.003Z,26.80
2018-09-03T10:16:33.922Z,26.50
2018-09-03T10:19:02.819Z,26.50
2018-09-03T10:21:31.983Z,26.10
2018-09-03T10:24:00.962Z,26.20
2018-09-03T10:26:29.851Z,25.90
2018-09-03T10:28:58.962Z,25.90
2018-09-03T10:31:27.882Z,25.40
2018-09-03T10:33:57.365Z,25.70
2018-09-03T10:36:32.699Z,25.70
2018-09-03T10:39:02.597Z,25.60
2018-09-03T10:41:31.487Z,25.50
2018-09-03T10:44:00.696Z,25.20
2018-09-03T10:46:29.994Z,25.50
2018-09-03T10:48:58.890Z,25.20
2018-09-03T10:51:27.796Z,25.20
2018-09-03T10:53:56.753Z,25.50
2018-09-03T10:56:25.930Z,25.50
2018-09-03T10:58:55.033Z,25.40
2018-09-03T11:01:24.258Z,25.40
2018-09-03T11:03:53.138Z,25.40
2018-09-03T11:06:22.296Z,25.20
2018-09-03T11:08:51.167Z,25.10
2018-09-03T11:11:20.144Z,24.90
2018-09-03T11:13:49.092Z,25.10
2018-09-03T11:16:18.379Z,25.00
2018-09-03T11:18:47.301Z,24.90
2018-09-03T11:21:16.347Z,25.10
2018-09-03T11:23:45.483Z,25.40
2018-09-03T11:26:14.439Z,25.20
2018-09-03T11:28:43.522Z,25.00
2018-09-03T11:31:12.370Z,24.90
2018-09-03T11:33:41.333Z,25.40
2018-09-03T11:36:10.266Z,24.90
2018-09-03T11:38:39.136Z,24.90
2018-09-03T11:41:08.309Z,24.50
2018-09-03T11:43:37.864Z,25.30
2018-09-03T11:46:07.015Z,25.10
2018-09-03T11:48:35.946Z,24.70
2018-09-03T11:51:05.153Z,24.70
2018-09-03T11:53:34.127Z,25.10
2018-09-03T11:56:03.290Z,25.40
2018-09-03T11:58:32.225Z,25.50
2018-09-03T12:01:01.863Z,26.70
2018-09-03T12:03:30.904Z,26.80
2018-09-03T12:05:59.801Z,26.10
2018-09-03T12:08:28.798Z,26.10
2018-09-03T12:10:57.698Z,26.80
2018-09-03T12:13:26.650Z,25.40
2018-09-03T12:16:26.191Z,25.70
2018-09-03T12:18:56.937Z,25.50
2018-09-03T12:21:25.865Z,26.20
2018-09-03T12:23:54.750Z,26.30
2018-09-03T12:26:23.862Z,26.10
2018-09-03T12:28:52.793Z,26.20
2018-09-03T12:31:21.696Z,24.90
2018-09-03T12:33:50.572Z,24.50
2018-09-03T12:36:19.448Z,24.80
2018-09-03T12:38:49.492Z,25.00
2018-09-03T12:41:18.416Z,25.90
2018-09-03T12:43:47.573Z,25.70
2018-09-03T12:46:16.477Z,24.70
2018-09-03T12:48:46.286Z,24.70
2018-09-03T12:51:15.509Z,24.30
2018-09-03T12:53:45.107Z,24.40
2018-09-03T12:56:13.991Z,24.60
2018-09-03T12:58:43.190Z,24.50
2018-09-03T13:01:12.364Z,25.90
2018-09-03T13:03:41.972Z,25.80
2018-09-03T13:06:11.152Z,25.90
2018-09-03T13:08:40.049Z,26.10
2018-09-03T13:11:09.027Z,25.30
2018-09-03T13:13:37.934Z,26.10
2018-09-03T13:16:06.914Z,26.00
2018-09-03T13:18:35.864Z,25.30
2018-09-03T13:21:04.749Z,24.70
2018-09-03T13:23:33.644Z,24.30
2018-09-03T13:26:02.576Z,24.30
2018-09-03T13:28:31.510Z,25.70
2018-09-03T13:31:00.388Z,25.60
2018-09-03T13:33:29.771Z,25.70
2018-09-03T13:35:58.649Z,24.30
2018-09-03T13:38:27.851Z,25.00
2018-09-03T13:40:56.736Z,25.40
2018-09-03T13:43:25.873Z,25.70
2018-09-03T13:45:54.958Z,25.40
2018-09-03T13:48:23.909Z,26.00
2018-09-03T13:50:52.933Z,26.20
2018-09-03T13:53:22.065Z,25.50
2018-09-03T13:55:50.970Z,26.50
2018-09-03T13:58:19.851Z,26.40
2018-09-03T14:00:48.715Z,26.70
2018-09-03T14:03:17.634Z,26.10
2018-09-03T14:05:47.246Z,25.70
2018-09-03T14:08:16.144Z,25.70
2018-09-03T14:10:45.076Z,26.60
2018-09-03T14:13:14.081Z,26.50
2018-09-03T14:15:43.446Z,26.40
2018-09-03T14:18:12.996Z,26.00
2018-09-03T14:20:42.186Z,25.80
2018-09-03T14:23:11.061Z,25.80
2018-09-03T14:25:39.961Z,25.70
2018-09-03T14:28:08.844Z,26.80
2018-09-03T14:30:38.036Z,25.90
2018-09-03T14:33:07.163Z,25.80
2018-09-03T14:35:36.098Z,26.50
2018-09-03T14:38:05.036Z,26.80
2018-09-03T14:40:33.971Z,26.90
2018-09-03T14:43:03.074Z,26.40
2018-09-03T14:45:32.010Z,27.00
2018-09-03T14:48:01.496Z,27.20
2018-09-03T14:50:30.719Z,26.20
2018-09-03T14:52:59.706Z,26.60
2018-09-03T14:55:28.810Z,27.40
2018-09-03T14:57:57.692Z,27.40
2018-09-03T15:00:26.611Z,27.30
2018-09-03T15:02:55.880Z,26.70
2018-09-03T15:05:24.756Z,26.60
2018-09-03T15:07:53.635Z,26.90
2018-09-03T15:10:22.546Z,27.30
2018-09-03T15:12:51.656Z,26.30
2018-09-03T15:15:20.558Z,27.40
2018-09-03T15:17:49.721Z,26.70
2018-09-03T15:20:18.726Z,27.40
2018-09-03T15:22:48.072Z,27.00
2018-09-03T15:25:17.189Z,26.50
2018-09-03T15:27:46.131Z,27.30
2018-09-03T15:30:15.036Z,26.90
2018-09-03T15:32:43.906Z,27.00
2018-09-03T15:35:12.779Z,27.00
2018-09-03T15:37:42.232Z,27.20
2018-09-03T15:40:11.151Z,26.50
2018-09-03T15:42:40.300Z,26.40
2018-09-03T15:45:09.175Z,27.90
2018-09-03T15:47:38.377Z,28.20
2018-09-03T15:50:07.298Z,27.50
2018-09-03T15:52:36.524Z,28.00
2018-09-03T15:55:05.518Z,28.40
2018-09-03T15:57:34.443Z,28.10
2018-09-03T16:00:03.519Z,28.10
2018-09-03T16:02:32.651Z,27.40
2018-09-03T16:05:01.503Z,28.60
2018-09-03T16:07:30.908Z,28.70
2018-09-03T16:09:59.839Z,28.40
2018-09-03T16:12:28.783Z,28.90
2018-09-03T16:14:58.379Z,29.10
2018-09-03T16:17:27.314Z,29.10
2018-09-03T16:19:56.210Z,29.30
2018-09-03T16:22:25.563Z,29.20
2018-09-03T16:24:54.719Z,29.40
2018-09-03T16:27:23.679Z,29.50
2018-09-03T16:29:52.507Z,29.30
2018-09-03T16:32:21.719Z,29.60
2018-09-03T16:34:50.596Z,29.80
2018-09-03T16:37:19.880Z,29.80
2018-09-03T16:39:48.778Z,29.80
2018-09-03T16:42:17.656Z,30.40
2018-09-03T16:44:46.595Z,30.60
2018-09-03T16:47:15.773Z,30.40
2018-09-03T16:49:45.137Z,30.40
2018-09-03T16:52:14.126Z,30.40
2018-09-03T16:54:43.001Z,30.10
2018-09-03T16:57:11.919Z,30.10
2018-09-03T16:59:41.428Z,29.70
2018-09-03T17:02:10.332Z,29.80
2018-09-03T17:04:39.236Z,29.70
2018-09-03T17:07:08.128Z,29.80
2018-09-03T17:09:37.500Z,29.80
2018-09-03T17:12:06.751Z,29.80
2018-09-03T17:14:35.642Z,29.80
2018-09-03T17:17:05.200Z,30.30
2018-09-03T17:19:34.076Z,29.70
2018-09-03T17:22:02.975Z,29.80
2018-09-03T17:24:32.216Z,29.60
2018-09-03T17:27:01.097Z,29.60
2018-09-03T17:29:29.992Z,29.60
2018-09-03T17:31:59.195Z,29.80
2018-09-03T17:34:28.169Z,29.90
2018-09-03T17:36:57.046Z,29.90
2018-09-03T17:39:25.957Z,30.10
2018-09-03T17:41:55.129Z,31.30
2018-09-03T17:44:24.043Z,32.00
2018-09-03T17:46:52.955Z,33.20
2018-09-03T17:49:22.098Z,34.40
2018-09-03T17:51:51.062Z,34.50
2018-09-03T17:54:19.941Z,35.40
2018-09-03T17:56:48.832Z,35.90
2018-09-03T17:59:17.753Z,36.30
2018-09-03T18:01:46.650Z,36.50
2018-09-03T18:04:15.532Z,36.60
2018-09-03T18:06:44.426Z,37.20
2018-09-03T18:09:13.327Z,37.20
2018-09-03T18:11:42.249Z,37.50
2018-09-03T18:14:11.293Z,37.80
2018-09-03T18:16:40.297Z,37.90
2018-09-03T18:19:09.214Z,38.10
2018-09-03T18:21:38.128Z,38.40
2018-09-03T18:24:07.046Z,38.40
2018-09-03T18:26:35.941Z,38.50
2018-09-03T18:29:05.372Z,38.70
2018-09-03T18:31:34.355Z,38.70
2018-09-03T18:34:03.483Z,38.70
2018-09-03T18:36:32.368Z,39.00
2018-09-03T18:39:01.240Z,39.10
2018-09-03T18:41:30.135Z,39.10
2018-09-03T18:43:59.334Z,39.40
2018-09-03T18:46:28.280Z,39.60
2018-09-03T18:48:57.683Z,39.60
2018-09-03T18:51:26.625Z,39.90
2018-09-03T18:53:55.590Z,39.90
2018-09-03T18:56:24.516Z,40.00
2018-09-03T18:58:53.472Z,39.90
2018-09-03T19:01:22.949Z,40.00
2018-09-03T19:03:52.065Z,40.20
2018-09-03T19:06:20.977Z,40.00
2018-09-03T19:11:25.251Z,40.20
2018-09-03T19:13:54.341Z,40.00
2018-09-03T19:16:23.327Z,40.30
2018-09-03T19:18:52.244Z,40.30
2018-09-03T19:21:21.155Z,40.50
2018-09-03T19:23:50.155Z,40.60
2018-09-03T19:26:19.266Z,40.70
2018-09-03T19:28:48.180Z,40.70
2018-09-03T19:31:17.441Z,40.90
2018-09-03T19:33:46.409Z,40.90
2018-09-03T19:36:15.356Z,40.70
2018-09-03T19:38:44.282Z,41.00
2018-09-03T19:41:13.177Z,41.00
2018-09-03T19:43:42.181Z,41.00
2018-09-03T19:46:11.121Z,41.30
2018-09-03T19:48:40.222Z,41.60
2018-09-03T19:51:09.231Z,41.20
2018-09-03T19:53:38.461Z,41.00
2018-09-03T19:56:07.359Z,41.50
2018-09-03T19:58:36.322Z,41.50
2018-09-03T20:01:05.474Z,41.60
2018-09-03T20:03:34.400Z,41.60
2018-09-03T20:06:03.395Z,41.90
2018-09-03T20:08:32.768Z,41.90
2018-09-03T20:11:01.663Z,42.10
2018-09-03T20:13:30.992Z,42.20
2018-09-03T20:16:00.108Z,42.10
2018-09-03T20:18:29.006Z,42.40
2018-09-03T20:20:58.939Z,42.80
2018-09-03T20:23:27.937Z,42.80
2018-09-03T20:25:56.807Z,42.80
2018-09-03T20:28:26.099Z,42.50
2018-09-03T20:30:55.090Z,42.70
2018-09-03T20:33:24.024Z,41.90
2018-09-03T20:35:52.960Z,41.50
2018-09-03T20:38:21.869Z,41.30
2018-09-03T20:40:51.130Z,41.30
2018-09-03T20:43:20.138Z,41.30
2018-09-03T20:45:49.390Z,41.50
2018-09-03T20:48:18.276Z,41.50
2018-09-03T20:50:47.176Z,41.50
2018-09-03T20:53:16.136Z,41.50
2018-09-03T20:55:45.061Z,41.50
2018-09-03T20:58:14.012Z,41.30
2018-09-03T21:00:43.515Z,41.30
2018-09-03T21:03:12.535Z,41.30
2018-09-03T21:05:41.435Z,41.20
2018-09-03T21:08:10.430Z,41.60
2018-09-03T21:10:40.343Z,41.50
2018-09-03T21:13:09.375Z,41.80
2018-09-03T21:15:38.629Z,42.10
2018-09-03T21:18:07.559Z,42.10
2018-09-03T21:20:36.507Z,42.70
2018-09-03T21:23:05.737Z,42.70
2018-09-03T21:25:34.748Z,42.70
2018-09-03T21:28:04.055Z,42.80
2018-09-03T21:30:32.964Z,43.00
2018-09-03T21:33:02.001Z,43.10
2018-09-03T21:35:30.975Z,43.10
2018-09-03T21:37:59.835Z,43.40
2018-09-03T21:40:29.015Z,44.40
2018-09-03T21:42:57.894Z,44.90
2018-09-03T21:45:26.798Z,44.60
2018-09-03T21:47:55.683Z,44.90
2018-09-03T21:50:24.631Z,44.90
2018-09-03T21:52:53.538Z,44.00
2018-09-03T21:55:22.409Z,43.60
2018-09-03T21:57:51.329Z,43.00
2018-09-03T22:00:20.863Z,42.80
2018-09-03T22:02:52.431Z,42.70
2018-09-03T22:05:22.230Z,42.40
2018-09-03T22:07:51.228Z,42.20
2018-09-03T22:10:20.189Z,42.20
2018-09-03T22:12:49.081Z,42.20
2018-09-03T22:15:18.206Z,42.10
2018-09-03T22:17:47.562Z,41.90
2018-09-03T22:20:16.889Z,41.90
2018-09-03T22:22:45.840Z,41.90
2018-09-03T22:25:15.255Z,41.90
2018-09-03T22:27:44.183Z,42.10
2018-09-03T22:30:13.774Z,41.90
2018-09-03T22:32:42.792Z,42.20
2018-09-03T22:35:11.775Z,42.20
2018-09-03T22:37:41.960Z,42.40
2018-09-03T22:40:11.511Z,42.40
2018-09-03T22:42:40.419Z,42.40
2018-09-03T22:45:09.322Z,42.20
2018-09-03T22:47:38.589Z,42.50
2018-09-03T22:50:07.492Z,43.00
2018-09-03T22:52:36.374Z,43.10
2018-09-03T22:55:05.455Z,43.10
2018-09-03T22:57:34.447Z,43.30
2018-09-03T23:00:05.585Z,43.10
2018-09-03T23:02:40.751Z,43.30
2018-09-03T23:05:09.683Z,43.30
2018-09-03T23:07:38.587Z,43.30
2018-09-03T23:10:09.110Z,43.30
2018-09-03T23:12:38.805Z,43.40
2018-09-03T23:15:08.354Z,43.40
2018-09-03T23:17:37.679Z,43.60
2018-09-03T23:20:06.676Z,43.60
2018-09-03T23:22:35.568Z,43.70
2018-09-03T23:25:04.503Z,43.70
2018-09-03T23:27:33.634Z,43.60
2018-09-03T23:30:02.799Z,43.70
2018-09-03T23:32:33.117Z,43.60
2018-09-03T23:35:14.885Z,43.70
2018-09-03T23:37:49.060Z,43.70
2018-09-03T23:40:19.566Z,43.90
2018-09-03T23:43:07.603Z,43.90
2018-09-03T23:45:51.088Z,43.90
2018-09-03T23:48:22.692Z,44.00
2018-09-03T23:50:51.916Z,44.00
2018-09-03T23:53:21.173Z,44.10
2018-09-03T23:55:52.956Z,44.30
2018-09-03T23:58:22.472Z,44.00
